NCAR-RAP Real-Time Weather Data

Output produced by METARs form (17 October 2018  16:16 UTC)
found at http://weather.rap.ucar.edu/surface/
 
RJCK 171100Z 29004KT 260V050 9999 FEW040 05/02 Q1012
RJCK 171000Z 27005KT 9999 FEW040 08/03 Q1011
RJCK 170900Z 25007KT 9999 FEW050 09/03 Q1011
RJCK 170800Z VRB02KT 9999 FEW050 10/05 Q1010
RJCK 170700Z 17007KT 9999 FEW050 11/04 Q1010
RJCK 170600Z 16010KT 9999 FEW030 SCT050 12/04 Q1010
RJCK 170500Z 17011KT 9999 FEW040 13/03 Q1009
RJCK 170400Z 16009KT 120V210 9999 FEW040 12/02 Q1009
RJCK 170300Z 16005KT 090V240 9999 FEW040 13/04 Q1010
RJCK 170200Z VRB06KT 9999 FEW040 12/03 Q1010
RJCK 170100Z VRB01KT 9999 FEW030 11/03 Q1010
RJCK 170000Z 05003KT 010V100 9999 FEW030 SCT/// 09/04 Q1010
RJCK 162300Z 07003KT 9999 FEW020 BKN/// 09/04 Q1010
RJCK 162200Z 34003KT 9999 FEW020 BKN/// 05/03 Q1010
RJCK 162145Z 33005KT 9999 FEW020 BKN/// 06/03 Q1010 RMK 1CU020 A2983
RJCK 161100Z 33004KT 9999 FEW010 SCT/// 09/09 Q1010
RJCK 161000Z 01004KT 9999 FEW010 SCT080 11/10 Q1010
RJCK 160900Z 33004KT 9999 FEW010 SCT070 12/11 Q1010
RJCK 160800Z 21004KT 180V250 9999 FEW010 SCT030 FEW030CB 12/11 Q1010
RJCK 160700Z 20007KT 9999 FEW015 SCT030 FEW030CB 13/11 Q1010
RJCK 160600Z 19011KT 9999 FEW020 SCT/// 14/11 Q1010
RJCK 160500Z 17011KT 9999 FEW020 SCT/// 14/11 Q1010
RJCK 160400Z 19008KT 9999 FEW015 BKN/// 15/11 Q1011
RJCK 160300Z 18007KT 160V220 9999 FEW010 BKN080 14/11 Q1011
RJCK 160200Z 18006KT 9999 FEW010 BKN080 13/11 Q1012
RJCK 160100Z 20005KT 180V240 9999 FEW010 SCT015 BKN100 14/11 Q1013
RJCK 160000Z 36003KT 260V070 9999 FEW010 BKN015 13/10 Q1014
RJCK 152311Z 34005KT 9999 FEW007 SCT009 BKN015 11/10 Q1014 RMK 1ST007 4ST009 6ST015 A2996
RJCK 152300Z 34005KT 9999 FEW007 BKN009 BKN015 11/10 Q1014
RJCK 152200Z 32005KT 8000 FEW003 SCT005 BKN009 10/09 Q1014
RJCK 152145Z 32005KT 8000 FEW002 SCT005 BKN008 10/09 Q1014 RMK 1ST002 3ST005 6ST008 A2995
RJCK 151100Z VRB02KT 9999 FEW020 BKN030 09/08 Q1017
RJCK 151000Z VRB02KT 9999 FEW020 08/07 Q1017
RJCK 150900Z 22002KT 9999 FEW020 11/08 Q1017
RJCK 150800Z 20007KT 9999 FEW020 SCT080 11/07 Q1017
RJCK 150700Z 19010KT 9999 FEW020 BKN080 13/08 Q1017
RJCK 150600Z 19009KT 9999 FEW020 BKN070 13/09 Q1017
RJCK 150500Z 19010KT 9999 FEW020 SCT080 14/09 Q1017